sensor_id;sensor_type;location;lat;lon;timestamp;P1;durP1;ratioP1;P2;durP2;ratioP2
54171;SDS011;40076;52.354;4.970;2022-08-24T00:00:57;5.40;;;3.15;;
54171;SDS011;40076;52.354;4.970;2022-08-24T00:03:22;4.30;;;3.00;;
54171;SDS011;40076;52.354;4.970;2022-08-24T00:05:48;4.55;;;2.75;;
54171;SDS011;40076;52.354;4.970;2022-08-24T00:08:14;4.22;;;2.90;;
54171;SDS011;40076;52.354;4.970;2022-08-24T00:10:40;4.63;;;2.53;;
54171;SDS011;40076;52.354;4.970;2022-08-24T00:13:05;5.32;;;3.13;;
54171;SDS011;40076;52.354;4.970;2022-08-24T00:15:31;5.03;;;2.60;;
54171;SDS011;40076;52.354;4.970;2022-08-24T00:17:57;5.18;;;3.08;;
54171;SDS011;40076;52.354;4.970;2022-08-24T00:20:23;7.45;;;3.55;;
54171;SDS011;40076;52.354;4.970;2022-08-24T00:22:48;5.57;;;3.67;;
54171;SDS011;40076;52.354;4.970;2022-08-24T00:25:14;6.80;;;3.80;;
54171;SDS011;40076;52.354;4.970;2022-08-24T00:27:40;6.10;;;3.38;;
54171;SDS011;40076;52.354;4.970;2022-08-24T00:30:07;6.60;;;3.60;;
54171;SDS011;40076;52.354;4.970;2022-08-24T00:32:35;5.10;;;3.40;;
54171;SDS011;40076;52.354;4.970;2022-08-24T00:35:02;5.07;;;4.00;;
54171;SDS011;40076;52.354;4.970;2022-08-24T00:37:29;5.53;;;4.15;;
54171;SDS011;40076;52.354;4.970;2022-08-24T00:39:55;6.30;;;3.92;;
54171;SDS011;40076;52.354;4.970;2022-08-24T00:42:20;7.38;;;4.55;;
54171;SDS011;40076;52.354;4.970;2022-08-24T00:44:46;6.15;;;5.20;;
54171;SDS011;40076;52.354;4.970;2022-08-24T00:47:30;8.75;;;6.00;;
54171;SDS011;40076;52.354;4.970;2022-08-24T00:50:04;8.35;;;6.80;;
54171;SDS011;40076;52.354;4.970;2022-08-24T00:52:55;9.13;;;7.47;;
54171;SDS011;40076;52.354;4.970;2022-08-24T00:55:28;9.45;;;7.18;;
54171;SDS011;40076;52.354;4.970;2022-08-24T00:57:59;9.05;;;6.18;;
54171;SDS011;40076;52.354;4.970;2022-08-24T01:00:28;8.55;;;5.70;;
54171;SDS011;40076;52.354;4.970;2022-08-24T01:02:56;6.60;;;5.53;;
54171;SDS011;40076;52.354;4.970;2022-08-24T01:05:28;8.15;;;5.32;;
54171;SDS011;40076;52.354;4.970;2022-08-24T01:07:58;7.20;;;5.63;;
54171;SDS011;40076;52.354;4.970;2022-08-24T01:10:25;7.78;;;6.22;;
54171;SDS011;40076;52.354;4.970;2022-08-24T01:12:57;8.90;;;6.10;;
54171;SDS011;40076;52.354;4.970;2022-08-24T01:15:24;8.90;;;5.50;;
54171;SDS011;40076;52.354;4.970;2022-08-24T01:17:50;7.53;;;5.55;;
54171;SDS011;40076;52.354;4.970;2022-08-24T01:20:34;8.63;;;5.25;;
54171;SDS011;40076;52.354;4.970;2022-08-24T01:23:04;6.30;;;4.50;;
54171;SDS011;40076;52.354;4.970;2022-08-24T01:25:50;8.10;;;4.32;;
54171;SDS011;40076;52.354;4.970;2022-08-24T01:28:17;6.18;;;4.50;;
54171;SDS011;40076;52.354;4.970;2022-08-24T01:30:44;8.18;;;4.68;;
54171;SDS011;40076;52.354;4.970;2022-08-24T01:33:13;8.63;;;4.97;;
54171;SDS011;40076;52.354;4.970;2022-08-24T01:35:52;7.82;;;5.72;;
54171;SDS011;40076;52.354;4.970;2022-08-24T01:38:20;8.57;;;5.93;;
54171;SDS011;40076;52.354;4.970;2022-08-24T01:40:49;6.88;;;5.07;;
54171;SDS011;40076;52.354;4.970;2022-08-24T01:43:21;8.77;;;5.63;;
54171;SDS011;40076;52.354;4.970;2022-08-24T01:45:48;6.60;;;5.40;;
54171;SDS011;40076;52.354;4.970;2022-08-24T01:48:13;7.65;;;5.60;;
54171;SDS011;40076;52.354;4.970;2022-08-24T01:50:39;10.50;;;5.68;;
54171;SDS011;40076;52.354;4.970;2022-08-24T01:53:05;6.80;;;5.20;;
54171;SDS011;40076;52.354;4.970;2022-08-24T01:55:30;7.63;;;5.32;;
54171;SDS011;40076;52.354;4.970;2022-08-24T01:57:56;7.13;;;5.55;;
54171;SDS011;40076;52.354;4.970;2022-08-24T02:00:22;9.25;;;4.90;;
54171;SDS011;40076;52.354;4.970;2022-08-24T02:02:47;8.63;;;5.85;;
54171;SDS011;40076;52.354;4.970;2022-08-24T02:05:13;11.48;;;8.45;;
54171;SDS011;40076;52.354;4.970;2022-08-24T02:07:40;10.32;;;8.88;;
54171;SDS011;40076;52.354;4.970;2022-08-24T02:10:06;12.23;;;9.48;;
54171;SDS011;40076;52.354;4.970;2022-08-24T02:12:36;11.30;;;8.93;;
54171;SDS011;40076;52.354;4.970;2022-08-24T02:15:05;12.95;;;9.70;;
54171;SDS011;40076;52.354;4.970;2022-08-24T02:17:32;15.20;;;10.43;;
54171;SDS011;40076;52.354;4.970;2022-08-24T02:19:58;12.57;;;10.65;;
54171;SDS011;40076;52.354;4.970;2022-08-24T02:22:24;15.73;;;11.80;;
54171;SDS011;40076;52.354;4.970;2022-08-24T02:24:49;13.45;;;11.02;;
54171;SDS011;40076;52.354;4.970;2022-08-24T02:27:14;16.23;;;14.32;;
54171;SDS011;40076;52.354;4.970;2022-08-24T02:29:40;17.73;;;13.32;;
54171;SDS011;40076;52.354;4.970;2022-08-24T02:32:06;17.90;;;14.85;;
54171;SDS011;40076;52.354;4.970;2022-08-24T02:34:32;12.60;;;10.60;;
54171;SDS011;40076;52.354;4.970;2022-08-24T02:36:57;15.38;;;10.50;;
54171;SDS011;40076;52.354;4.970;2022-08-24T02:39:23;11.52;;;9.60;;
54171;SDS011;40076;52.354;4.970;2022-08-24T02:41:49;13.18;;;10.02;;
54171;SDS011;40076;52.354;4.970;2022-08-24T02:44:15;13.32;;;10.18;;
54171;SDS011;40076;52.354;4.970;2022-08-24T02:46:41;11.55;;;9.05;;
54171;SDS011;40076;52.354;4.970;2022-08-24T02:49:06;14.32;;;9.90;;
54171;SDS011;40076;52.354;4.970;2022-08-24T02:51:32;16.73;;;11.90;;
54171;SDS011;40076;52.354;4.970;2022-08-24T02:53:58;15.55;;;11.77;;
54171;SDS011;40076;52.354;4.970;2022-08-24T02:56:25;17.02;;;14.15;;
54171;SDS011;40076;52.354;4.970;2022-08-24T02:58:51;17.35;;;13.75;;
54171;SDS011;40076;52.354;4.970;2022-08-24T03:01:17;20.17;;;14.77;;
54171;SDS011;40076;52.354;4.970;2022-08-24T03:03:42;17.73;;;15.27;;
54171;SDS011;40076;52.354;4.970;2022-08-24T03:06:08;13.98;;;12.55;;
54171;SDS011;40076;52.354;4.970;2022-08-24T03:08:34;17.58;;;13.02;;
54171;SDS011;40076;52.354;4.970;2022-08-24T03:11:01;17.73;;;14.65;;
54171;SDS011;40076;52.354;4.970;2022-08-24T03:13:27;17.38;;;14.98;;
54171;SDS011;40076;52.354;4.970;2022-08-24T03:15:53;21.70;;;16.63;;
54171;SDS011;40076;52.354;4.970;2022-08-24T03:18:19;22.77;;;16.27;;
54171;SDS011;40076;52.354;4.970;2022-08-24T03:20:45;19.48;;;15.85;;
54171;SDS011;40076;52.354;4.970;2022-08-24T03:23:11;20.25;;;16.67;;
54171;SDS011;40076;52.354;4.970;2022-08-24T03:25:36;21.33;;;16.52;;
54171;SDS011;40076;52.354;4.970;2022-08-24T03:28:01;20.35;;;16.98;;
54171;SDS011;40076;52.354;4.970;2022-08-24T03:30:27;20.73;;;17.10;;
54171;SDS011;40076;52.354;4.970;2022-08-24T03:32:52;17.40;;;15.60;;
54171;SDS011;40076;52.354;4.970;2022-08-24T03:35:18;20.10;;;16.88;;
54171;SDS011;40076;52.354;4.970;2022-08-24T03:37:45;20.13;;;16.50;;
54171;SDS011;40076;52.354;4.970;2022-08-24T03:40:11;22.05;;;17.23;;
54171;SDS011;40076;52.354;4.970;2022-08-24T03:42:37;22.40;;;19.10;;
54171;SDS011;40076;52.354;4.970;2022-08-24T03:45:03;22.52;;;19.65;;
54171;SDS011;40076;52.354;4.970;2022-08-24T03:47:29;21.05;;;18.85;;
54171;SDS011;40076;52.354;4.970;2022-08-24T03:49:54;22.23;;;19.13;;
54171;SDS011;40076;52.354;4.970;2022-08-24T03:52:20;24.98;;;20.02;;
54171;SDS011;40076;52.354;4.970;2022-08-24T03:54:46;22.92;;;19.48;;
54171;SDS011;40076;52.354;4.970;2022-08-24T03:57:11;23.83;;;20.38;;
54171;SDS011;40076;52.354;4.970;2022-08-24T03:59:37;21.95;;;18.67;;
54171;SDS011;40076;52.354;4.970;2022-08-24T04:02:03;22.33;;;19.88;;
54171;SDS011;40076;52.354;4.970;2022-08-24T04:04:28;23.92;;;20.50;;
54171;SDS011;40076;52.354;4.970;2022-08-24T04:06:55;21.40;;;19.17;;
54171;SDS011;40076;52.354;4.970;2022-08-24T04:09:22;22.65;;;19.73;;
54171;SDS011;40076;52.354;4.970;2022-08-24T04:11:47;29.10;;;23.88;;
54171;SDS011;40076;52.354;4.970;2022-08-24T04:14:13;24.80;;;22.05;;
54171;SDS011;40076;52.354;4.970;2022-08-24T04:16:40;29.88;;;24.10;;
54171;SDS011;40076;52.354;4.970;2022-08-24T04:19:05;28.10;;;24.65;;
54171;SDS011;40076;52.354;4.970;2022-08-24T04:21:32;33.50;;;26.70;;
54171;SDS011;40076;52.354;4.970;2022-08-24T04:23:59;31.58;;;26.38;;
54171;SDS011;40076;52.354;4.970;2022-08-24T04:26:26;36.83;;;28.45;;
54171;SDS011;40076;52.354;4.970;2022-08-24T04:28:53;29.65;;;26.38;;
54171;SDS011;40076;52.354;4.970;2022-08-24T04:31:19;30.42;;;27.13;;
54171;SDS011;40076;52.354;4.970;2022-08-24T04:33:45;32.53;;;27.75;;
54171;SDS011;40076;52.354;4.970;2022-08-24T04:36:14;31.20;;;26.88;;
54171;SDS011;40076;52.354;4.970;2022-08-24T04:38:40;28.58;;;25.50;;
54171;SDS011;40076;52.354;4.970;2022-08-24T04:41:06;29.08;;;24.17;;
54171;SDS011;40076;52.354;4.970;2022-08-24T04:43:33;26.50;;;22.98;;
54171;SDS011;40076;52.354;4.970;2022-08-24T04:45:59;26.67;;;23.75;;
54171;SDS011;40076;52.354;4.970;2022-08-24T04:48:29;27.05;;;23.73;;
54171;SDS011;40076;52.354;4.970;2022-08-24T04:50:57;30.88;;;24.38;;
54171;SDS011;40076;52.354;4.970;2022-08-24T04:53:26;28.03;;;24.93;;
54171;SDS011;40076;52.354;4.970;2022-08-24T04:55:52;29.45;;;24.00;;
54171;SDS011;40076;52.354;4.970;2022-08-24T04:58:17;29.48;;;24.13;;
54171;SDS011;40076;52.354;4.970;2022-08-24T05:00:43;29.98;;;24.58;;
54171;SDS011;40076;52.354;4.970;2022-08-24T05:03:09;29.35;;;24.55;;
54171;SDS011;40076;52.354;4.970;2022-08-24T05:05:38;27.40;;;24.45;;
54171;SDS011;40076;52.354;4.970;2022-08-24T05:08:05;29.23;;;24.15;;
54171;SDS011;40076;52.354;4.970;2022-08-24T05:10:30;28.67;;;24.63;;
54171;SDS011;40076;52.354;4.970;2022-08-24T05:12:55;29.50;;;23.92;;
54171;SDS011;40076;52.354;4.970;2022-08-24T05:15:21;29.45;;;25.70;;
54171;SDS011;40076;52.354;4.970;2022-08-24T05:17:46;29.63;;;25.25;;
54171;SDS011;40076;52.354;4.970;2022-08-24T05:20:11;26.70;;;22.48;;
54171;SDS011;40076;52.354;4.970;2022-08-24T05:22:37;26.52;;;22.60;;
54171;SDS011;40076;52.354;4.970;2022-08-24T05:25:03;25.00;;;21.05;;
54171;SDS011;40076;52.354;4.970;2022-08-24T05:27:29;30.08;;;23.65;;
54171;SDS011;40076;52.354;4.970;2022-08-24T05:29:56;30.50;;;25.20;;
54171;SDS011;40076;52.354;4.970;2022-08-24T05:32:21;29.95;;;25.95;;
54171;SDS011;40076;52.354;4.970;2022-08-24T05:34:47;35.33;;;26.42;;
54171;SDS011;40076;52.354;4.970;2022-08-24T05:37:13;27.70;;;24.42;;
54171;SDS011;40076;52.354;4.970;2022-08-24T05:39:38;33.20;;;25.75;;
54171;SDS011;40076;52.354;4.970;2022-08-24T05:42:03;31.60;;;26.33;;
54171;SDS011;40076;52.354;4.970;2022-08-24T05:44:29;34.22;;;27.67;;
54171;SDS011;40076;52.354;4.970;2022-08-24T05:46:55;31.70;;;27.35;;
54171;SDS011;40076;52.354;4.970;2022-08-24T05:49:22;32.95;;;27.10;;
54171;SDS011;40076;52.354;4.970;2022-08-24T05:51:48;30.90;;;26.48;;
54171;SDS011;40076;52.354;4.970;2022-08-24T05:54:13;33.10;;;28.25;;
54171;SDS011;40076;52.354;4.970;2022-08-24T05:56:39;35.67;;;27.50;;
54171;SDS011;40076;52.354;4.970;2022-08-24T05:59:04;31.83;;;26.33;;
54171;SDS011;40076;52.354;4.970;2022-08-24T06:01:30;31.52;;;26.85;;
54171;SDS011;40076;52.354;4.970;2022-08-24T06:03:55;32.95;;;25.83;;
54171;SDS011;40076;52.354;4.970;2022-08-24T06:06:22;29.67;;;26.52;;
54171;SDS011;40076;52.354;4.970;2022-08-24T06:08:48;27.98;;;24.75;;
54171;SDS011;40076;52.354;4.970;2022-08-24T06:11:25;34.70;;;25.63;;
54171;SDS011;40076;52.354;4.970;2022-08-24T06:14:01;30.63;;;24.42;;
54171;SDS011;40076;52.354;4.970;2022-08-24T06:16:28;29.23;;;23.73;;
54171;SDS011;40076;52.354;4.970;2022-08-24T06:18:54;30.45;;;25.65;;
54171;SDS011;40076;52.354;4.970;2022-08-24T06:21:22;28.77;;;24.95;;
54171;SDS011;40076;52.354;4.970;2022-08-24T06:23:49;33.90;;;26.30;;
54171;SDS011;40076;52.354;4.970;2022-08-24T06:26:15;30.45;;;25.48;;
54171;SDS011;40076;52.354;4.970;2022-08-24T06:29:00;37.15;;;26.42;;
54171;SDS011;40076;52.354;4.970;2022-08-24T06:31:26;30.25;;;24.42;;
54171;SDS011;40076;52.354;4.970;2022-08-24T06:33:52;31.42;;;25.67;;
54171;SDS011;40076;52.354;4.970;2022-08-24T06:36:18;29.65;;;23.77;;
54171;SDS011;40076;52.354;4.970;2022-08-24T06:38:43;28.67;;;23.33;;
54171;SDS011;40076;52.354;4.970;2022-08-24T06:41:09;30.00;;;22.52;;
54171;SDS011;40076;52.354;4.970;2022-08-24T06:43:35;27.00;;;22.13;;
54171;SDS011;40076;52.354;4.970;2022-08-24T06:46:01;31.02;;;24.02;;
54171;SDS011;40076;52.354;4.970;2022-08-24T06:48:27;28.08;;;23.88;;
54171;SDS011;40076;52.354;4.970;2022-08-24T06:50:54;25.95;;;22.60;;
54171;SDS011;40076;52.354;4.970;2022-08-24T06:53:19;26.92;;;22.95;;
54171;SDS011;40076;52.354;4.970;2022-08-24T06:55:48;30.73;;;23.17;;
54171;SDS011;40076;52.354;4.970;2022-08-24T06:58:16;24.63;;;21.92;;
54171;SDS011;40076;52.354;4.970;2022-08-24T07:00:42;24.90;;;19.67;;
54171;SDS011;40076;52.354;4.970;2022-08-24T07:03:08;26.58;;;20.50;;
54171;SDS011;40076;52.354;4.970;2022-08-24T07:05:33;21.08;;;16.33;;
54171;SDS011;40076;52.354;4.970;2022-08-24T07:07:59;24.80;;;18.42;;
54171;SDS011;40076;52.354;4.970;2022-08-24T07:10:24;23.98;;;19.08;;
54171;SDS011;40076;52.354;4.970;2022-08-24T07:12:50;21.23;;;16.40;;
54171;SDS011;40076;52.354;4.970;2022-08-24T07:15:15;24.38;;;19.08;;
54171;SDS011;40076;52.354;4.970;2022-08-24T07:17:40;23.33;;;18.65;;
54171;SDS011;40076;52.354;4.970;2022-08-24T07:20:06;24.38;;;18.88;;
54171;SDS011;40076;52.354;4.970;2022-08-24T07:22:33;21.83;;;18.00;;
54171;SDS011;40076;52.354;4.970;2022-08-24T07:24:58;16.48;;;12.63;;
54171;SDS011;40076;52.354;4.970;2022-08-24T07:27:23;18.80;;;15.05;;
54171;SDS011;40076;52.354;4.970;2022-08-24T07:29:52;19.90;;;15.57;;
54171;SDS011;40076;52.354;4.970;2022-08-24T07:32:18;19.17;;;14.57;;
54171;SDS011;40076;52.354;4.970;2022-08-24T07:34:43;16.35;;;13.30;;
54171;SDS011;40076;52.354;4.970;2022-08-24T07:37:08;18.90;;;13.68;;
54171;SDS011;40076;52.354;4.970;2022-08-24T07:39:34;13.15;;;11.85;;
54171;SDS011;40076;52.354;4.970;2022-08-24T07:41:59;14.50;;;10.50;;
54171;SDS011;40076;52.354;4.970;2022-08-24T07:44:24;12.68;;;10.32;;
54171;SDS011;40076;52.354;4.970;2022-08-24T07:46:49;14.60;;;10.77;;
54171;SDS011;40076;52.354;4.970;2022-08-24T07:49:15;16.48;;;11.38;;
54171;SDS011;40076;52.354;4.970;2022-08-24T07:51:40;15.32;;;11.07;;
54171;SDS011;40076;52.354;4.970;2022-08-24T07:54:06;16.13;;;11.88;;
54171;SDS011;40076;52.354;4.970;2022-08-24T07:56:31;13.85;;;10.75;;
54171;SDS011;40076;52.354;4.970;2022-08-24T07:58:57;10.90;;;9.25;;
54171;SDS011;40076;52.354;4.970;2022-08-24T08:01:22;13.68;;;7.60;;
54171;SDS011;40076;52.354;4.970;2022-08-24T08:03:48;10.00;;;6.75;;
54171;SDS011;40076;52.354;4.970;2022-08-24T08:06:14;11.25;;;6.50;;
54171;SDS011;40076;52.354;4.970;2022-08-24T08:08:41;12.07;;;5.70;;
54171;SDS011;40076;52.354;4.970;2022-08-24T08:11:07;9.95;;;5.00;;
54171;SDS011;40076;52.354;4.970;2022-08-24T08:13:33;11.25;;;7.20;;
54171;SDS011;40076;52.354;4.970;2022-08-24T08:16:01;9.10;;;6.38;;
54171;SDS011;40076;52.354;4.970;2022-08-24T08:18:28;12.80;;;6.20;;
54171;SDS011;40076;52.354;4.970;2022-08-24T08:20:54;8.98;;;5.70;;
54171;SDS011;40076;52.354;4.970;2022-08-24T08:23:19;11.05;;;7.47;;
54171;SDS011;40076;52.354;4.970;2022-08-24T08:26:04;10.52;;;7.05;;
54171;SDS011;40076;52.354;4.970;2022-08-24T08:28:31;9.40;;;6.95;;
54171;SDS011;40076;52.354;4.970;2022-08-24T08:31:00;16.02;;;8.60;;
54171;SDS011;40076;52.354;4.970;2022-08-24T08:33:27;10.23;;;7.53;;
54171;SDS011;40076;52.354;4.970;2022-08-24T08:36:07;13.95;;;8.50;;
54171;SDS011;40076;52.354;4.970;2022-08-24T08:38:35;10.50;;;8.45;;
54171;SDS011;40076;52.354;4.970;2022-08-24T08:43:39;11.50;;;9.38;;
54171;SDS011;40076;52.354;4.970;2022-08-24T08:51:08;14.43;;;10.55;;
54171;SDS011;40076;52.354;4.970;2022-08-24T08:56:42;13.32;;;8.50;;
54171;SDS011;40076;52.354;4.970;2022-08-24T09:01:46;13.73;;;9.65;;
54171;SDS011;40076;52.354;4.970;2022-08-24T09:04:51;12.02;;;8.30;;
54171;SDS011;40076;52.354;4.970;2022-08-24T09:21:27;11.88;;;8.93;;
54171;SDS011;40076;52.354;4.970;2022-08-24T09:27:40;12.80;;;8.93;;
54171;SDS011;40076;52.354;4.970;2022-08-24T09:30:16;9.70;;;7.85;;
54171;SDS011;40076;52.354;4.970;2022-08-24T09:35:56;10.52;;;7.72;;
54171;SDS011;40076;52.354;4.970;2022-08-24T09:38:58;10.85;;;7.78;;
54171;SDS011;40076;52.354;4.970;2022-08-24T09:41:39;11.93;;;7.80;;
54171;SDS011;40076;52.354;4.970;2022-08-24T09:52:35;8.90;;;6.03;;
54171;SDS011;40076;52.354;4.970;2022-08-24T09:55:26;9.65;;;6.78;;
54171;SDS011;40076;52.354;4.970;2022-08-24T09:58:16;7.25;;;5.03;;
54171;SDS011;40076;52.354;4.970;2022-08-24T10:15:10;8.80;;;5.38;;
54171;SDS011;40076;52.354;4.970;2022-08-24T10:20:56;8.20;;;6.15;;
54171;SDS011;40076;52.354;4.970;2022-08-24T10:26:44;12.10;;;7.18;;
54171;SDS011;40076;52.354;4.970;2022-08-24T10:29:38;8.80;;;5.47;;
54171;SDS011;40076;52.354;4.970;2022-08-24T10:32:47;9.48;;;5.15;;
54171;SDS011;40076;52.354;4.970;2022-08-24T10:35:23;9.68;;;5.05;;
54171;SDS011;40076;52.354;4.970;2022-08-24T10:54:45;5.43;;;3.22;;
54171;SDS011;40076;52.354;4.970;2022-08-24T11:02:31;4.47;;;2.63;;
54171;SDS011;40076;52.354;4.970;2022-08-24T11:05:00;4.55;;;2.40;;
54171;SDS011;40076;52.354;4.970;2022-08-24T11:07:29;3.83;;;1.80;;
54171;SDS011;40076;52.354;4.970;2022-08-24T11:09:57;5.07;;;2.47;;
54171;SDS011;40076;52.354;4.970;2022-08-24T11:12:27;4.28;;;2.30;;
54171;SDS011;40076;52.354;4.970;2022-08-24T11:18:14;3.38;;;1.73;;
54171;SDS011;40076;52.354;4.970;2022-08-24T11:20:34;4.10;;;1.55;;
54171;SDS011;40076;52.354;4.970;2022-08-24T11:23:09;2.90;;;1.95;;
54171;SDS011;40076;52.354;4.970;2022-08-24T11:25:38;2.80;;;1.75;;
54171;SDS011;40076;52.354;4.970;2022-08-24T11:30:57;6.07;;;1.92;;
54171;SDS011;40076;52.354;4.970;2022-08-24T11:33:26;4.60;;;1.80;;
54171;SDS011;40076;52.354;4.970;2022-08-24T11:35:58;4.13;;;1.88;;
54171;SDS011;40076;52.354;4.970;2022-08-24T11:38:26;3.00;;;1.80;;
54171;SDS011;40076;52.354;4.970;2022-08-24T11:41:02;3.17;;;1.52;;
54171;SDS011;40076;52.354;4.970;2022-08-24T11:51:30;3.75;;;1.30;;
54171;SDS011;40076;52.354;4.970;2022-08-24T11:54:17;2.80;;;1.40;;
54171;SDS011;40076;52.354;4.970;2022-08-24T11:56:57;3.15;;;1.50;;
54171;SDS011;40076;52.354;4.970;2022-08-24T11:59:54;3.03;;;1.48;;
54171;SDS011;40076;52.354;4.970;2022-08-24T12:10:59;2.78;;;1.00;;
54171;SDS011;40076;52.354;4.970;2022-08-24T12:13:48;2.00;;;1.20;;
54171;SDS011;40076;52.354;4.970;2022-08-24T12:16:23;2.30;;;1.20;;
54171;SDS011;40076;52.354;4.970;2022-08-24T12:21:36;3.22;;;1.52;;
54171;SDS011;40076;52.354;4.970;2022-08-24T12:24:06;4.70;;;1.80;;
54171;SDS011;40076;52.354;4.970;2022-08-24T12:26:38;3.42;;;1.80;;
54171;SDS011;40076;52.354;4.970;2022-08-24T12:31:46;3.08;;;1.70;;
54171;SDS011;40076;52.354;4.970;2022-08-24T12:37:01;4.50;;;1.70;;
54171;SDS011;40076;52.354;4.970;2022-08-24T12:39:38;4.95;;;2.20;;
54171;SDS011;40076;52.354;4.970;2022-08-24T12:42:16;6.13;;;2.13;;
54171;SDS011;40076;52.354;4.970;2022-08-24T12:44:55;4.13;;;2.17;;
54171;SDS011;40076;52.354;4.970;2022-08-24T12:47:25;4.63;;;1.95;;
54171;SDS011;40076;52.354;4.970;2022-08-24T12:50:02;4.50;;;1.80;;
54171;SDS011;40076;52.354;4.970;2022-08-24T12:55:38;4.55;;;1.80;;
54171;SDS011;40076;52.354;4.970;2022-08-24T13:01:15;4.78;;;2.25;;
54171;SDS011;40076;52.354;4.970;2022-08-24T13:03:42;4.05;;;1.63;;
54171;SDS011;40076;52.354;4.970;2022-08-24T13:06:34;1.83;;;1.00;;
54171;SDS011;40076;52.354;4.970;2022-08-24T13:09:06;3.28;;;1.45;;
54171;SDS011;40076;52.354;4.970;2022-08-24T13:11:40;2.88;;;0.80;;
54171;SDS011;40076;52.354;4.970;2022-08-24T13:14:14;3.33;;;0.80;;
54171;SDS011;40076;52.354;4.970;2022-08-24T13:21:49;2.23;;;1.03;;
54171;SDS011;40076;52.354;4.970;2022-08-24T13:24:58;3.55;;;1.48;;
54171;SDS011;40076;52.354;4.970;2022-08-24T13:29:38;3.28;;;1.50;;
54171;SDS011;40076;52.354;4.970;2022-08-24T13:32:05;2.40;;;1.30;;
54171;SDS011;40076;52.354;4.970;2022-08-24T13:34:40;3.13;;;1.48;;
54171;SDS011;40076;52.354;4.970;2022-08-24T13:37:26;2.15;;;1.10;;
54171;SDS011;40076;52.354;4.970;2022-08-24T13:40:13;3.10;;;1.25;;
54171;SDS011;40076;52.354;4.970;2022-08-24T13:42:53;4.47;;;1.48;;
54171;SDS011;40076;52.354;4.970;2022-08-24T13:53:57;4.43;;;1.80;;
54171;SDS011;40076;52.354;4.970;2022-08-24T13:56:28;3.38;;;1.40;;
54171;SDS011;40076;52.354;4.970;2022-08-24T14:05:30;3.55;;;1.88;;
54171;SDS011;40076;52.354;4.970;2022-08-24T14:16:36;2.53;;;1.65;;
54171;SDS011;40076;52.354;4.970;2022-08-24T14:19:24;2.40;;;1.48;;
54171;SDS011;40076;52.354;4.970;2022-08-24T14:24:30;4.72;;;1.60;;
54171;SDS011;40076;52.354;4.970;2022-08-24T14:27:05;6.75;;;2.25;;
54171;SDS011;40076;52.354;4.970;2022-08-24T14:29:37;4.82;;;2.42;;
54171;SDS011;40076;52.354;4.970;2022-08-24T14:50:39;6.07;;;2.30;;
54171;SDS011;40076;52.354;4.970;2022-08-24T15:01:55;8.63;;;2.95;;
54171;SDS011;40076;52.354;4.970;2022-08-24T15:04:51;8.70;;;2.72;;
54171;SDS011;40076;52.354;4.970;2022-08-24T15:07:27;7.00;;;2.67;;
54171;SDS011;40076;52.354;4.970;2022-08-24T15:09:54;6.07;;;2.17;;
54171;SDS011;40076;52.354;4.970;2022-08-24T15:18:03;6.50;;;2.60;;
54171;SDS011;40076;52.354;4.970;2022-08-24T15:20:47;5.55;;;2.75;;
54171;SDS011;40076;52.354;4.970;2022-08-24T15:29:00;5.25;;;2.53;;
54171;SDS011;40076;52.354;4.970;2022-08-24T15:31:37;6.60;;;2.58;;
54171;SDS011;40076;52.354;4.970;2022-08-24T15:34:03;4.97;;;2.55;;
54171;SDS011;40076;52.354;4.970;2022-08-24T15:36:29;8.68;;;2.70;;
54171;SDS011;40076;52.354;4.970;2022-08-24T15:38:58;5.03;;;2.40;;
54171;SDS011;40076;52.354;4.970;2022-08-24T15:41:36;5.47;;;2.40;;
54171;SDS011;40076;52.354;4.970;2022-08-24T15:44:25;4.32;;;2.05;;
54171;SDS011;40076;52.354;4.970;2022-08-24T15:46:55;5.32;;;2.40;;
54171;SDS011;40076;52.354;4.970;2022-08-24T15:49:28;9.50;;;2.85;;
54171;SDS011;40076;52.354;4.970;2022-08-24T15:55:03;7.78;;;2.95;;
54171;SDS011;40076;52.354;4.970;2022-08-24T15:57:27;6.20;;;2.40;;
54171;SDS011;40076;52.354;4.970;2022-08-24T16:03:21;4.15;;;2.63;;
54171;SDS011;40076;52.354;4.970;2022-08-24T16:05:54;6.20;;;2.63;;
54171;SDS011;40076;52.354;4.970;2022-08-24T16:08:53;6.03;;;3.13;;
54171;SDS011;40076;52.354;4.970;2022-08-24T16:11:28;4.72;;;2.80;;
54171;SDS011;40076;52.354;4.970;2022-08-24T16:14:12;5.43;;;2.80;;
54171;SDS011;40076;52.354;4.970;2022-08-24T16:16:48;5.47;;;2.83;;
54171;SDS011;40076;52.354;4.970;2022-08-24T16:19:24;6.65;;;3.28;;
54171;SDS011;40076;52.354;4.970;2022-08-24T16:21:53;6.10;;;3.60;;
54171;SDS011;40076;52.354;4.970;2022-08-24T16:26:59;5.82;;;2.92;;
54171;SDS011;40076;52.354;4.970;2022-08-24T16:32:08;5.60;;;3.22;;
54171;SDS011;40076;52.354;4.970;2022-08-24T16:34:37;5.40;;;3.00;;
54171;SDS011;40076;52.354;4.970;2022-08-24T16:37:04;7.13;;;3.65;;
54171;SDS011;40076;52.354;4.970;2022-08-24T16:39:31;5.68;;;3.22;;
54171;SDS011;40076;52.354;4.970;2022-08-24T16:42:01;7.38;;;2.78;;
54171;SDS011;40076;52.354;4.970;2022-08-24T16:44:31;7.80;;;7.10;;
54171;SDS011;40076;52.354;4.970;2022-08-24T16:46:59;7.20;;;3.78;;
54171;SDS011;40076;52.354;4.970;2022-08-24T16:49:25;8.18;;;3.70;;
54171;SDS011;40076;52.354;4.970;2022-08-24T16:51:50;4.43;;;2.70;;
54171;SDS011;40076;52.354;4.970;2022-08-24T16:54:16;5.38;;;3.03;;
54171;SDS011;40076;52.354;4.970;2022-08-24T16:56:41;7.30;;;4.43;;
54171;SDS011;40076;52.354;4.970;2022-08-24T16:59:09;9.80;;;4.20;;
54171;SDS011;40076;52.354;4.970;2022-08-24T17:01:40;6.43;;;3.10;;
54171;SDS011;40076;52.354;4.970;2022-08-24T17:04:06;7.43;;;4.45;;
54171;SDS011;40076;52.354;4.970;2022-08-24T17:06:31;6.27;;;3.20;;
54171;SDS011;40076;52.354;4.970;2022-08-24T17:08:57;5.05;;;4.10;;
54171;SDS011;40076;52.354;4.970;2022-08-24T17:11:22;7.50;;;4.53;;
54171;SDS011;40076;52.354;4.970;2022-08-24T17:13:49;7.00;;;5.05;;
54171;SDS011;40076;52.354;4.970;2022-08-24T17:16:15;5.45;;;3.67;;
54171;SDS011;40076;52.354;4.970;2022-08-24T17:18:41;10.63;;;4.50;;
54171;SDS011;40076;52.354;4.970;2022-08-24T17:21:07;10.73;;;5.10;;
54171;SDS011;40076;52.354;4.970;2022-08-24T17:23:33;7.82;;;6.55;;
54171;SDS011;40076;52.354;4.970;2022-08-24T17:25:59;8.55;;;6.50;;
54171;SDS011;40076;52.354;4.970;2022-08-24T17:28:27;9.55;;;5.07;;
54171;SDS011;40076;52.354;4.970;2022-08-24T17:30:53;17.20;;;13.20;;
54171;SDS011;40076;52.354;4.970;2022-08-24T17:33:18;13.20;;;7.50;;
54171;SDS011;40076;52.354;4.970;2022-08-24T17:35:43;8.07;;;5.97;;
54171;SDS011;40076;52.354;4.970;2022-08-24T17:38:09;9.60;;;5.95;;
54171;SDS011;40076;52.354;4.970;2022-08-24T17:40:34;7.65;;;6.15;;
54171;SDS011;40076;52.354;4.970;2022-08-24T17:43:00;9.52;;;6.57;;
54171;SDS011;40076;52.354;4.970;2022-08-24T17:45:25;8.20;;;5.40;;
54171;SDS011;40076;52.354;4.970;2022-08-24T17:47:51;7.07;;;6.15;;
54171;SDS011;40076;52.354;4.970;2022-08-24T17:50:17;9.90;;;6.78;;
54171;SDS011;40076;52.354;4.970;2022-08-24T17:52:43;8.07;;;7.22;;
54171;SDS011;40076;52.354;4.970;2022-08-24T17:55:10;7.85;;;5.60;;
54171;SDS011;40076;52.354;4.970;2022-08-24T17:57:36;9.10;;;8.20;;
54171;SDS011;40076;52.354;4.970;2022-08-24T18:00:03;8.35;;;7.00;;
54171;SDS011;40076;52.354;4.970;2022-08-24T18:02:31;8.20;;;6.65;;
54171;SDS011;40076;52.354;4.970;2022-08-24T18:04:56;11.00;;;7.22;;
54171;SDS011;40076;52.354;4.970;2022-08-24T18:07:22;7.95;;;7.15;;
54171;SDS011;40076;52.354;4.970;2022-08-24T18:09:48;7.85;;;6.05;;
54171;SDS011;40076;52.354;4.970;2022-08-24T18:12:16;12.02;;;7.55;;
54171;SDS011;40076;52.354;4.970;2022-08-24T18:14:43;11.02;;;8.60;;